sensor_id;sensor_type;location;lat;lon;timestamp;P1;durP1;ratioP1;P2;durP2;ratioP2
28988;SDS011;16089;59.952;10.818;2023-09-07T00:02:13;7.68;;;4.57;;
28988;SDS011;16089;59.952;10.818;2023-09-07T00:04:39;11.65;;;5.30;;
28988;SDS011;16089;59.952;10.818;2023-09-07T00:07:06;12.80;;;5.20;;
28988;SDS011;16089;59.952;10.818;2023-09-07T00:09:32;8.55;;;4.70;;
28988;SDS011;16089;59.952;10.818;2023-09-07T00:11:58;8.55;;;4.78;;
28988;SDS011;16089;59.952;10.818;2023-09-07T00:14:25;7.93;;;4.70;;
28988;SDS011;16089;59.952;10.818;2023-09-07T00:16:52;11.32;;;4.63;;
28988;SDS011;16089;59.952;10.818;2023-09-07T00:19:19;7.80;;;4.22;;
28988;SDS011;16089;59.952;10.818;2023-09-07T00:21:45;8.77;;;4.60;;
28988;SDS011;16089;59.952;10.818;2023-09-07T00:24:11;7.65;;;4.32;;
28988;SDS011;16089;59.952;10.818;2023-09-07T00:26:37;8.30;;;4.18;;
28988;SDS011;16089;59.952;10.818;2023-09-07T00:29:03;10.18;;;4.32;;
28988;SDS011;16089;59.952;10.818;2023-09-07T00:31:31;7.18;;;4.07;;
28988;SDS011;16089;59.952;10.818;2023-09-07T00:33:59;8.98;;;4.80;;
28988;SDS011;16089;59.952;10.818;2023-09-07T00:36:25;9.73;;;4.72;;
28988;SDS011;16089;59.952;10.818;2023-09-07T00:38:51;9.10;;;4.60;;
28988;SDS011;16089;59.952;10.818;2023-09-07T00:41:17;10.10;;;4.43;;
28988;SDS011;16089;59.952;10.818;2023-09-07T00:43:44;9.13;;;4.25;;
28988;SDS011;16089;59.952;10.818;2023-09-07T00:46:10;8.20;;;4.43;;
28988;SDS011;16089;59.952;10.818;2023-09-07T00:48:37;10.88;;;5.03;;
28988;SDS011;16089;59.952;10.818;2023-09-07T00:51:05;10.00;;;4.45;;
28988;SDS011;16089;59.952;10.818;2023-09-07T00:53:31;8.43;;;4.65;;
28988;SDS011;16089;59.952;10.818;2023-09-07T00:55:58;12.80;;;4.38;;
28988;SDS011;16089;59.952;10.818;2023-09-07T00:58:24;10.23;;;4.50;;
28988;SDS011;16089;59.952;10.818;2023-09-07T01:00:50;8.55;;;4.20;;
28988;SDS011;16089;59.952;10.818;2023-09-07T01:03:17;6.20;;;3.85;;
28988;SDS011;16089;59.952;10.818;2023-09-07T01:05:44;8.00;;;4.57;;
28988;SDS011;16089;59.952;10.818;2023-09-07T01:08:15;8.57;;;4.30;;
28988;SDS011;16089;59.952;10.818;2023-09-07T01:10:44;10.90;;;4.10;;
28988;SDS011;16089;59.952;10.818;2023-09-07T01:13:11;9.77;;;4.53;;
28988;SDS011;16089;59.952;10.818;2023-09-07T01:15:37;8.07;;;4.22;;
28988;SDS011;16089;59.952;10.818;2023-09-07T01:18:03;7.40;;;4.40;;
28988;SDS011;16089;59.952;10.818;2023-09-07T01:20:30;8.43;;;3.78;;
28988;SDS011;16089;59.952;10.818;2023-09-07T01:22:59;8.38;;;4.65;;
28988;SDS011;16089;59.952;10.818;2023-09-07T01:25:26;9.40;;;4.50;;
28988;SDS011;16089;59.952;10.818;2023-09-07T01:27:53;10.35;;;4.70;;
28988;SDS011;16089;59.952;10.818;2023-09-07T01:30:19;8.57;;;4.45;;
28988;SDS011;16089;59.952;10.818;2023-09-07T01:32:46;9.27;;;4.15;;
28988;SDS011;16089;59.952;10.818;2023-09-07T01:35:14;7.35;;;4.20;;
28988;SDS011;16089;59.952;10.818;2023-09-07T01:37:41;10.07;;;4.18;;
28988;SDS011;16089;59.952;10.818;2023-09-07T01:40:09;10.77;;;4.20;;
28988;SDS011;16089;59.952;10.818;2023-09-07T01:42:35;11.27;;;4.03;;
28988;SDS011;16089;59.952;10.818;2023-09-07T01:45:02;7.05;;;3.80;;
28988;SDS011;16089;59.952;10.818;2023-09-07T01:47:29;8.40;;;4.15;;
28988;SDS011;16089;59.952;10.818;2023-09-07T01:49:55;11.98;;;5.18;;
28988;SDS011;16089;59.952;10.818;2023-09-07T01:52:21;8.05;;;4.13;;
28988;SDS011;16089;59.952;10.818;2023-09-07T01:54:47;9.07;;;4.30;;
28988;SDS011;16089;59.952;10.818;2023-09-07T01:57:15;7.68;;;4.32;;
28988;SDS011;16089;59.952;10.818;2023-09-07T01:59:41;7.70;;;4.07;;
28988;SDS011;16089;59.952;10.818;2023-09-07T02:02:07;9.65;;;4.20;;
28988;SDS011;16089;59.952;10.818;2023-09-07T02:04:34;5.95;;;3.72;;
28988;SDS011;16089;59.952;10.818;2023-09-07T02:07:00;7.32;;;4.13;;
28988;SDS011;16089;59.952;10.818;2023-09-07T02:09:26;6.18;;;3.85;;
28988;SDS011;16089;59.952;10.818;2023-09-07T02:11:52;9.80;;;3.97;;
28988;SDS011;16089;59.952;10.818;2023-09-07T02:14:20;7.95;;;4.30;;
28988;SDS011;16089;59.952;10.818;2023-09-07T02:16:46;6.90;;;3.85;;
28988;SDS011;16089;59.952;10.818;2023-09-07T02:19:12;8.38;;;3.97;;
28988;SDS011;16089;59.952;10.818;2023-09-07T02:21:39;7.93;;;3.90;;
28988;SDS011;16089;59.952;10.818;2023-09-07T02:24:05;7.00;;;3.70;;
28988;SDS011;16089;59.952;10.818;2023-09-07T02:26:32;9.90;;;4.10;;
28988;SDS011;16089;59.952;10.818;2023-09-07T02:28:58;9.40;;;4.32;;
28988;SDS011;16089;59.952;10.818;2023-09-07T02:31:25;9.77;;;4.63;;
28988;SDS011;16089;59.952;10.818;2023-09-07T02:33:52;6.63;;;4.10;;
28988;SDS011;16089;59.952;10.818;2023-09-07T02:36:18;9.18;;;4.40;;
28988;SDS011;16089;59.952;10.818;2023-09-07T02:38:44;9.70;;;4.25;;
28988;SDS011;16089;59.952;10.818;2023-09-07T02:41:10;7.05;;;4.32;;
28988;SDS011;16089;59.952;10.818;2023-09-07T02:43:37;11.52;;;4.60;;
28988;SDS011;16089;59.952;10.818;2023-09-07T02:46:03;8.00;;;4.32;;
28988;SDS011;16089;59.952;10.818;2023-09-07T02:48:31;12.63;;;4.40;;
28988;SDS011;16089;59.952;10.818;2023-09-07T02:50:57;8.80;;;4.53;;
28988;SDS011;16089;59.952;10.818;2023-09-07T02:53:25;7.40;;;4.55;;
28988;SDS011;16089;59.952;10.818;2023-09-07T02:55:51;8.20;;;4.13;;
28988;SDS011;16089;59.952;10.818;2023-09-07T02:58:17;7.50;;;4.13;;
28988;SDS011;16089;59.952;10.818;2023-09-07T03:00:44;9.02;;;3.95;;
28988;SDS011;16089;59.952;10.818;2023-09-07T03:03:11;8.98;;;4.22;;
28988;SDS011;16089;59.952;10.818;2023-09-07T03:05:40;7.85;;;4.30;;
28988;SDS011;16089;59.952;10.818;2023-09-07T03:08:06;7.95;;;3.97;;
28988;SDS011;16089;59.952;10.818;2023-09-07T03:10:33;6.03;;;3.40;;
28988;SDS011;16089;59.952;10.818;2023-09-07T03:12:59;7.18;;;4.18;;
28988;SDS011;16089;59.952;10.818;2023-09-07T03:15:25;7.78;;;4.28;;
28988;SDS011;16089;59.952;10.818;2023-09-07T03:17:52;6.28;;;3.97;;
28988;SDS011;16089;59.952;10.818;2023-09-07T03:20:18;6.82;;;4.00;;
28988;SDS011;16089;59.952;10.818;2023-09-07T03:22:46;13.68;;;4.38;;
28988;SDS011;16089;59.952;10.818;2023-09-07T03:25:13;7.60;;;4.45;;
28988;SDS011;16089;59.952;10.818;2023-09-07T03:27:39;8.38;;;4.32;;
28988;SDS011;16089;59.952;10.818;2023-09-07T03:30:06;6.75;;;3.92;;
28988;SDS011;16089;59.952;10.818;2023-09-07T03:32:33;10.43;;;4.20;;
28988;SDS011;16089;59.952;10.818;2023-09-07T03:34:59;9.93;;;4.50;;
28988;SDS011;16089;59.952;10.818;2023-09-07T03:37:26;8.20;;;4.53;;
28988;SDS011;16089;59.952;10.818;2023-09-07T03:39:54;6.70;;;3.90;;
28988;SDS011;16089;59.952;10.818;2023-09-07T03:42:21;9.38;;;4.50;;
28988;SDS011;16089;59.952;10.818;2023-09-07T03:44:47;8.48;;;4.47;;
28988;SDS011;16089;59.952;10.818;2023-09-07T03:47:13;7.78;;;4.75;;
28988;SDS011;16089;59.952;10.818;2023-09-07T03:49:40;8.48;;;4.13;;
28988;SDS011;16089;59.952;10.818;2023-09-07T03:52:06;9.50;;;4.93;;
28988;SDS011;16089;59.952;10.818;2023-09-07T03:54:32;9.00;;;4.63;;
28988;SDS011;16089;59.952;10.818;2023-09-07T03:57:00;8.52;;;4.65;;
28988;SDS011;16089;59.952;10.818;2023-09-07T03:59:27;8.73;;;4.53;;
28988;SDS011;16089;59.952;10.818;2023-09-07T04:01:53;8.95;;;4.82;;
28988;SDS011;16089;59.952;10.818;2023-09-07T04:04:20;7.60;;;4.28;;
28988;SDS011;16089;59.952;10.818;2023-09-07T04:06:46;9.35;;;4.97;;
28988;SDS011;16089;59.952;10.818;2023-09-07T04:09:13;7.72;;;4.72;;
28988;SDS011;16089;59.952;10.818;2023-09-07T04:11:40;9.77;;;4.82;;
28988;SDS011;16089;59.952;10.818;2023-09-07T04:14:07;8.43;;;4.82;;
28988;SDS011;16089;59.952;10.818;2023-09-07T04:16:33;9.55;;;4.95;;
28988;SDS011;16089;59.952;10.818;2023-09-07T04:19:00;7.03;;;4.65;;
28988;SDS011;16089;59.952;10.818;2023-09-07T04:21:26;9.00;;;4.78;;
28988;SDS011;16089;59.952;10.818;2023-09-07T04:23:52;11.80;;;5.10;;
28988;SDS011;16089;59.952;10.818;2023-09-07T04:26:19;6.85;;;4.43;;
28988;SDS011;16089;59.952;10.818;2023-09-07T04:28:45;10.68;;;4.80;;
28988;SDS011;16089;59.952;10.818;2023-09-07T04:31:12;9.70;;;5.20;;
28988;SDS011;16089;59.952;10.818;2023-09-07T04:33:39;7.85;;;4.65;;
28988;SDS011;16089;59.952;10.818;2023-09-07T04:36:08;9.02;;;4.45;;
28988;SDS011;16089;59.952;10.818;2023-09-07T04:38:35;9.02;;;4.72;;
28988;SDS011;16089;59.952;10.818;2023-09-07T04:41:07;8.27;;;4.30;;
28988;SDS011;16089;59.952;10.818;2023-09-07T04:43:34;8.20;;;4.80;;
28988;SDS011;16089;59.952;10.818;2023-09-07T04:46:00;9.77;;;4.53;;
28988;SDS011;16089;59.952;10.818;2023-09-07T04:48:27;9.90;;;4.60;;
28988;SDS011;16089;59.952;10.818;2023-09-07T04:50:57;7.95;;;4.22;;
28988;SDS011;16089;59.952;10.818;2023-09-07T04:53:23;9.05;;;4.97;;
28988;SDS011;16089;59.952;10.818;2023-09-07T04:55:49;9.25;;;4.70;;
28988;SDS011;16089;59.952;10.818;2023-09-07T04:58:15;8.27;;;4.13;;
28988;SDS011;16089;59.952;10.818;2023-09-07T05:00:42;9.18;;;4.32;;
28988;SDS011;16089;59.952;10.818;2023-09-07T05:03:08;7.05;;;4.38;;
28988;SDS011;16089;59.952;10.818;2023-09-07T05:05:35;7.75;;;4.18;;
28988;SDS011;16089;59.952;10.818;2023-09-07T05:08:02;9.00;;;4.22;;
28988;SDS011;16089;59.952;10.818;2023-09-07T05:10:30;7.18;;;4.05;;
28988;SDS011;16089;59.952;10.818;2023-09-07T05:12:56;7.15;;;3.88;;
28988;SDS011;16089;59.952;10.818;2023-09-07T05:15:22;7.65;;;4.57;;
28988;SDS011;16089;59.952;10.818;2023-09-07T05:17:48;6.95;;;4.65;;
28988;SDS011;16089;59.952;10.818;2023-09-07T05:20:15;8.98;;;3.90;;
28988;SDS011;16089;59.952;10.818;2023-09-07T05:22:42;8.05;;;3.63;;
28988;SDS011;16089;59.952;10.818;2023-09-07T05:25:09;11.63;;;4.70;;
28988;SDS011;16089;59.952;10.818;2023-09-07T05:27:35;11.27;;;4.45;;
28988;SDS011;16089;59.952;10.818;2023-09-07T05:30:01;8.43;;;4.75;;
28988;SDS011;16089;59.952;10.818;2023-09-07T05:32:28;8.40;;;4.10;;
28988;SDS011;16089;59.952;10.818;2023-09-07T05:34:54;8.93;;;4.18;;
28988;SDS011;16089;59.952;10.818;2023-09-07T05:37:20;8.60;;;4.30;;
28988;SDS011;16089;59.952;10.818;2023-09-07T05:39:48;8.70;;;4.80;;
28988;SDS011;16089;59.952;10.818;2023-09-07T05:42:14;8.90;;;4.78;;
28988;SDS011;16089;59.952;10.818;2023-09-07T05:44:41;9.20;;;4.75;;
28988;SDS011;16089;59.952;10.818;2023-09-07T05:47:07;7.90;;;4.60;;
28988;SDS011;16089;59.952;10.818;2023-09-07T05:49:33;10.68;;;4.88;;
28988;SDS011;16089;59.952;10.818;2023-09-07T05:51:59;9.48;;;4.40;;
28988;SDS011;16089;59.952;10.818;2023-09-07T05:54:26;8.15;;;4.57;;
28988;SDS011;16089;59.952;10.818;2023-09-07T05:56:53;8.18;;;4.70;;
28988;SDS011;16089;59.952;10.818;2023-09-07T05:59:19;10.52;;;4.47;;
28988;SDS011;16089;59.952;10.818;2023-09-07T06:01:46;8.93;;;4.82;;
28988;SDS011;16089;59.952;10.818;2023-09-07T06:04:12;9.30;;;4.93;;
28988;SDS011;16089;59.952;10.818;2023-09-07T06:06:38;10.40;;;4.70;;
28988;SDS011;16089;59.952;10.818;2023-09-07T06:09:04;10.10;;;5.13;;
28988;SDS011;16089;59.952;10.818;2023-09-07T06:11:31;14.88;;;5.28;;
28988;SDS011;16089;59.952;10.818;2023-09-07T06:13:59;11.75;;;5.53;;
28988;SDS011;16089;59.952;10.818;2023-09-07T06:16:25;11.38;;;5.55;;
28988;SDS011;16089;59.952;10.818;2023-09-07T06:18:51;8.65;;;4.60;;
28988;SDS011;16089;59.952;10.818;2023-09-07T06:21:18;10.52;;;4.90;;
28988;SDS011;16089;59.952;10.818;2023-09-07T06:23:44;10.90;;;4.50;;
28988;SDS011;16089;59.952;10.818;2023-09-07T06:26:10;8.45;;;4.80;;
28988;SDS011;16089;59.952;10.818;2023-09-07T06:28:36;10.18;;;5.10;;
28988;SDS011;16089;59.952;10.818;2023-09-07T06:31:05;8.77;;;4.65;;
28988;SDS011;16089;59.952;10.818;2023-09-07T06:33:31;9.68;;;5.20;;
28988;SDS011;16089;59.952;10.818;2023-09-07T06:35:59;9.90;;;5.35;;
28988;SDS011;16089;59.952;10.818;2023-09-07T06:38:27;11.73;;;5.60;;
28988;SDS011;16089;59.952;10.818;2023-09-07T06:40:53;8.60;;;4.63;;
28988;SDS011;16089;59.952;10.818;2023-09-07T06:43:19;8.65;;;5.10;;
28988;SDS011;16089;59.952;10.818;2023-09-07T06:45:45;13.10;;;5.53;;
28988;SDS011;16089;59.952;10.818;2023-09-07T06:48:13;11.65;;;4.50;;
28988;SDS011;16089;59.952;10.818;2023-09-07T06:50:39;10.93;;;4.88;;
28988;SDS011;16089;59.952;10.818;2023-09-07T06:53:05;9.48;;;5.10;;
28988;SDS011;16089;59.952;10.818;2023-09-07T06:55:32;12.60;;;5.22;;
28988;SDS011;16089;59.952;10.818;2023-09-07T06:57:58;11.02;;;5.22;;
28988;SDS011;16089;59.952;10.818;2023-09-07T07:00:26;8.88;;;4.80;;
28988;SDS011;16089;59.952;10.818;2023-09-07T07:02:52;9.48;;;4.00;;
28988;SDS011;16089;59.952;10.818;2023-09-07T07:05:20;9.38;;;4.72;;
28988;SDS011;16089;59.952;10.818;2023-09-07T07:07:48;8.15;;;4.68;;
28988;SDS011;16089;59.952;10.818;2023-09-07T07:10:14;8.10;;;4.45;;
28988;SDS011;16089;59.952;10.818;2023-09-07T07:12:41;7.30;;;4.35;;
28988;SDS011;16089;59.952;10.818;2023-09-07T07:15:07;7.50;;;4.40;;
28988;SDS011;16089;59.952;10.818;2023-09-07T07:17:34;13.82;;;4.80;;
28988;SDS011;16089;59.952;10.818;2023-09-07T07:20:00;9.63;;;4.07;;
28988;SDS011;16089;59.952;10.818;2023-09-07T07:22:28;17.17;;;4.80;;
28988;SDS011;16089;59.952;10.818;2023-09-07T07:24:54;9.75;;;4.88;;
28988;SDS011;16089;59.952;10.818;2023-09-07T07:27:20;9.02;;;4.97;;
28988;SDS011;16089;59.952;10.818;2023-09-07T07:29:46;9.77;;;4.53;;
28988;SDS011;16089;59.952;10.818;2023-09-07T07:32:13;8.75;;;3.95;;
28988;SDS011;16089;59.952;10.818;2023-09-07T07:34:39;16.60;;;5.30;;
28988;SDS011;16089;59.952;10.818;2023-09-07T07:37:05;8.15;;;4.00;;
28988;SDS011;16089;59.952;10.818;2023-09-07T07:39:33;6.90;;;4.30;;
28988;SDS011;16089;59.952;10.818;2023-09-07T07:41:59;8.60;;;3.88;;
28988;SDS011;16089;59.952;10.818;2023-09-07T07:44:25;9.80;;;4.15;;
28988;SDS011;16089;59.952;10.818;2023-09-07T07:46:52;8.25;;;4.40;;
28988;SDS011;16089;59.952;10.818;2023-09-07T07:49:18;8.27;;;4.43;;
28988;SDS011;16089;59.952;10.818;2023-09-07T07:51:44;9.95;;;4.75;;
28988;SDS011;16089;59.952;10.818;2023-09-07T07:54:10;11.95;;;4.75;;
28988;SDS011;16089;59.952;10.818;2023-09-07T07:56:39;9.57;;;4.40;;
28988;SDS011;16089;59.952;10.818;2023-09-07T07:59:05;8.32;;;4.32;;
28988;SDS011;16089;59.952;10.818;2023-09-07T08:01:32;9.85;;;4.55;;
28988;SDS011;16089;59.952;10.818;2023-09-07T08:03:58;10.32;;;4.35;;
28988;SDS011;16089;59.952;10.818;2023-09-07T08:06:24;11.13;;;4.53;;
28988;SDS011;16089;59.952;10.818;2023-09-07T08:08:50;13.00;;;4.35;;
28988;SDS011;16089;59.952;10.818;2023-09-07T08:11:17;10.43;;;4.72;;
28988;SDS011;16089;59.952;10.818;2023-09-07T08:13:47;6.95;;;4.50;;
28988;SDS011;16089;59.952;10.818;2023-09-07T08:16:13;8.32;;;4.18;;
28988;SDS011;16089;59.952;10.818;2023-09-07T08:18:40;11.65;;;4.57;;
28988;SDS011;16089;59.952;10.818;2023-09-07T08:21:06;8.88;;;4.35;;
28988;SDS011;16089;59.952;10.818;2023-09-07T08:23:32;10.07;;;4.20;;
28988;SDS011;16089;59.952;10.818;2023-09-07T08:25:58;10.40;;;4.50;;
28988;SDS011;16089;59.952;10.818;2023-09-07T08:28:25;9.32;;;4.70;;
28988;SDS011;16089;59.952;10.818;2023-09-07T08:30:55;8.77;;;4.95;;
28988;SDS011;16089;59.952;10.818;2023-09-07T08:33:24;11.27;;;5.53;;
28988;SDS011;16089;59.952;10.818;2023-09-07T08:35:53;11.95;;;4.72;;
28988;SDS011;16089;59.952;10.818;2023-09-07T08:38:20;8.50;;;4.38;;
28988;SDS011;16089;59.952;10.818;2023-09-07T08:40:49;8.55;;;4.30;;
28988;SDS011;16089;59.952;10.818;2023-09-07T08:43:16;11.25;;;4.22;;
28988;SDS011;16089;59.952;10.818;2023-09-07T08:45:45;8.05;;;3.80;;
28988;SDS011;16089;59.952;10.818;2023-09-07T08:48:15;8.88;;;4.15;;
28988;SDS011;16089;59.952;10.818;2023-09-07T08:50:42;6.97;;;4.25;;
28988;SDS011;16089;59.952;10.818;2023-09-07T08:53:14;9.52;;;4.13;;
28988;SDS011;16089;59.952;10.818;2023-09-07T08:55:41;11.88;;;4.07;;
28988;SDS011;16089;59.952;10.818;2023-09-07T08:58:07;12.27;;;4.50;;
28988;SDS011;16089;59.952;10.818;2023-09-07T09:00:33;7.70;;;4.15;;
28988;SDS011;16089;59.952;10.818;2023-09-07T09:02:59;8.65;;;4.18;;
28988;SDS011;16089;59.952;10.818;2023-09-07T09:05:27;7.15;;;3.95;;
28988;SDS011;16089;59.952;10.818;2023-09-07T09:08:00;6.40;;;3.80;;
28988;SDS011;16089;59.952;10.818;2023-09-07T09:10:27;7.65;;;4.53;;
28988;SDS011;16089;59.952;10.818;2023-09-07T09:12:54;7.68;;;3.97;;
28988;SDS011;16089;59.952;10.818;2023-09-07T09:15:21;9.98;;;4.22;;
28988;SDS011;16089;59.952;10.818;2023-09-07T09:17:47;9.32;;;4.03;;
28988;SDS011;16089;59.952;10.818;2023-09-07T09:20:20;10.20;;;4.00;;
28988;SDS011;16089;59.952;10.818;2023-09-07T09:22:49;7.03;;;3.92;;
28988;SDS011;16089;59.952;10.818;2023-09-07T09:25:15;8.98;;;3.95;;
28988;SDS011;16089;59.952;10.818;2023-09-07T09:27:42;6.43;;;3.75;;
28988;SDS011;16089;59.952;10.818;2023-09-07T09:30:08;7.65;;;4.05;;
28988;SDS011;16089;59.952;10.818;2023-09-07T09:32:35;9.32;;;4.72;;
28988;SDS011;16089;59.952;10.818;2023-09-07T09:35:01;7.30;;;4.00;;
28988;SDS011;16089;59.952;10.818;2023-09-07T09:37:30;7.22;;;3.63;;
28988;SDS011;16089;59.952;10.818;2023-09-07T09:39:58;13.98;;;4.70;;
28988;SDS011;16089;59.952;10.818;2023-09-07T09:42:26;11.57;;;4.20;;
28988;SDS011;16089;59.952;10.818;2023-09-07T09:44:53;6.30;;;3.90;;
28988;SDS011;16089;59.952;10.818;2023-09-07T09:47:20;10.00;;;4.63;;
28988;SDS011;16089;59.952;10.818;2023-09-07T09:49:47;10.32;;;4.18;;
28988;SDS011;16089;59.952;10.818;2023-09-07T09:52:14;7.57;;;4.43;;
28988;SDS011;16089;59.952;10.818;2023-09-07T09:54:41;7.35;;;4.22;;
28988;SDS011;16089;59.952;10.818;2023-09-07T09:57:09;6.22;;;3.60;;
28988;SDS011;16089;59.952;10.818;2023-09-07T09:59:36;6.88;;;3.85;;
28988;SDS011;16089;59.952;10.818;2023-09-07T10:02:03;9.68;;;4.35;;
28988;SDS011;16089;59.952;10.818;2023-09-07T10:04:29;8.23;;;3.78;;
28988;SDS011;16089;59.952;10.818;2023-09-07T10:06:58;10.00;;;4.30;;
28988;SDS011;16089;59.952;10.818;2023-09-07T10:09:28;6.28;;;3.97;;
28988;SDS011;16089;59.952;10.818;2023-09-07T10:11:57;9.68;;;4.50;;
28988;SDS011;16089;59.952;10.818;2023-09-07T10:14:25;7.25;;;4.20;;
28988;SDS011;16089;59.952;10.818;2023-09-07T10:16:52;10.18;;;4.05;;
28988;SDS011;16089;59.952;10.818;2023-09-07T10:19:21;8.57;;;4.40;;
28988;SDS011;16089;59.952;10.818;2023-09-07T10:21:47;9.15;;;4.20;;
28988;SDS011;16089;59.952;10.818;2023-09-07T10:24:23;7.22;;;4.28;;
28988;SDS011;16089;59.952;10.818;2023-09-07T10:26:55;9.45;;;4.43;;
28988;SDS011;16089;59.952;10.818;2023-09-07T10:29:21;8.38;;;4.45;;
28988;SDS011;16089;59.952;10.818;2023-09-07T10:31:51;9.50;;;4.47;;
28988;SDS011;16089;59.952;10.818;2023-09-07T10:34:18;8.90;;;4.82;;
28988;SDS011;16089;59.952;10.818;2023-09-07T10:36:44;13.07;;;4.28;;
28988;SDS011;16089;59.952;10.818;2023-09-07T10:39:10;9.30;;;5.40;;
28988;SDS011;16089;59.952;10.818;2023-09-07T10:41:40;7.65;;;4.60;;
28988;SDS011;16089;59.952;10.818;2023-09-07T10:44:07;10.40;;;6.35;;
28988;SDS011;16089;59.952;10.818;2023-09-07T10:46:35;10.05;;;5.20;;
28988;SDS011;16089;59.952;10.818;2023-09-07T10:49:05;9.45;;;5.20;;
28988;SDS011;16089;59.952;10.818;2023-09-07T10:51:32;9.95;;;4.97;;
28988;SDS011;16089;59.952;10.818;2023-09-07T10:53:58;8.40;;;4.50;;
28988;SDS011;16089;59.952;10.818;2023-09-07T10:56:25;7.82;;;5.07;;
28988;SDS011;16089;59.952;10.818;2023-09-07T10:58:53;8.73;;;5.28;;
28988;SDS011;16089;59.952;10.818;2023-09-07T11:01:19;9.38;;;5.18;;
28988;SDS011;16089;59.952;10.818;2023-09-07T11:03:46;8.60;;;4.85;;
28988;SDS011;16089;59.952;10.818;2023-09-07T11:06:14;8.27;;;5.07;;
28988;SDS011;16089;59.952;10.818;2023-09-07T11:08:41;7.57;;;5.00;;
28988;SDS011;16089;59.952;10.818;2023-09-07T11:11:08;11.32;;;5.93;;
28988;SDS011;16089;59.952;10.818;2023-09-07T11:13:34;10.95;;;5.38;;
28988;SDS011;16089;59.952;10.818;2023-09-07T11:16:01;9.57;;;5.18;;
28988;SDS011;16089;59.952;10.818;2023-09-07T11:18:27;9.27;;;5.32;;
28988;SDS011;16089;59.952;10.818;2023-09-07T11:20:54;8.15;;;5.15;;
28988;SDS011;16089;59.952;10.818;2023-09-07T11:23:21;12.23;;;5.75;;
28988;SDS011;16089;59.952;10.818;2023-09-07T11:25:48;10.98;;;5.68;;
28988;SDS011;16089;59.952;10.818;2023-09-07T11:28:15;11.30;;;5.65;;
28988;SDS011;16089;59.952;10.818;2023-09-07T11:30:48;14.02;;;5.70;;
28988;SDS011;16089;59.952;10.818;2023-09-07T11:33:15;9.57;;;5.53;;
28988;SDS011;16089;59.952;10.818;2023-09-07T11:35:41;10.50;;;5.80;;
28988;SDS011;16089;59.952;10.818;2023-09-07T11:38:08;13.73;;;5.57;;
28988;SDS011;16089;59.952;10.818;2023-09-07T11:40:37;10.57;;;6.25;;
28988;SDS011;16089;59.952;10.818;2023-09-07T11:43:03;11.55;;;5.47;;
28988;SDS011;16089;59.952;10.818;2023-09-07T11:45:30;12.07;;;5.55;;
28988;SDS011;16089;59.952;10.818;2023-09-07T11:47:57;13.07;;;4.90;;
28988;SDS011;16089;59.952;10.818;2023-09-07T11:50:23;12.18;;;5.60;;
28988;SDS011;16089;59.952;10.818;2023-09-07T11:52:50;11.25;;;5.93;;
28988;SDS011;16089;59.952;10.818;2023-09-07T11:55:17;10.43;;;5.55;;
28988;SDS011;16089;59.952;10.818;2023-09-07T11:57:44;17.88;;;7.30;;
28988;SDS011;16089;59.952;10.818;2023-09-07T12:00:11;17.15;;;6.85;;
28988;SDS011;16089;59.952;10.818;2023-09-07T12:02:38;10.95;;;5.68;;
28988;SDS011;16089;59.952;10.818;2023-09-07T12:05:04;13.70;;;5.68;;
28988;SDS011;16089;59.952;10.818;2023-09-07T12:07:32;15.85;;;6.18;;
28988;SDS011;16089;59.952;10.818;2023-09-07T12:09:59;14.23;;;5.72;;
28988;SDS011;16089;59.952;10.818;2023-09-07T12:12:25;12.48;;;5.38;;
28988;SDS011;16089;59.952;10.818;2023-09-07T12:14:53;11.15;;;5.28;;
28988;SDS011;16089;59.952;10.818;2023-09-07T12:17:21;8.55;;;5.28;;
28988;SDS011;16089;59.952;10.818;2023-09-07T12:19:47;13.60;;;5.47;;
28988;SDS011;16089;59.952;10.818;2023-09-07T12:22:14;9.77;;;5.30;;
28988;SDS011;16089;59.952;10.818;2023-09-07T12:24:40;10.27;;;5.35;;
28988;SDS011;16089;59.952;10.818;2023-09-07T12:27:06;11.50;;;6.15;;
28988;SDS011;16089;59.952;10.818;2023-09-07T12:29:33;12.13;;;5.95;;
28988;SDS011;16089;59.952;10.818;2023-09-07T12:32:00;13.25;;;6.10;;
28988;SDS011;16089;59.952;10.818;2023-09-07T12:34:27;9.93;;;5.32;;
28988;SDS011;16089;59.952;10.818;2023-09-07T12:36:53;12.80;;;5.90;;
28988;SDS011;16089;59.952;10.818;2023-09-07T12:39:19;9.15;;;5.63;;
28988;SDS011;16089;59.952;10.818;2023-09-07T12:41:46;9.90;;;6.03;;
28988;SDS011;16089;59.952;10.818;2023-09-07T12:44:12;12.57;;;6.13;;
28988;SDS011;16089;59.952;10.818;2023-09-07T12:46:38;9.50;;;5.47;;
28988;SDS011;16089;59.952;10.818;2023-09-07T12:49:06;10.70;;;6.32;;
28988;SDS011;16089;59.952;10.818;2023-09-07T12:51:32;12.20;;;5.82;;
28988;SDS011;16089;59.952;10.818;2023-09-07T12:53:59;10.70;;;6.00;;
28988;SDS011;16089;59.952;10.818;2023-09-07T12:56:25;13.95;;;6.00;;
28988;SDS011;16089;59.952;10.818;2023-09-07T12:58:51;10.57;;;5.90;;
28988;SDS011;16089;59.952;10.818;2023-09-07T13:01:17;10.73;;;6.03;;
28988;SDS011;16089;59.952;10.818;2023-09-07T13:03:43;16.00;;;6.72;;
28988;SDS011;16089;59.952;10.818;2023-09-07T13:06:11;11.63;;;6.40;;
28988;SDS011;16089;59.952;10.818;2023-09-07T13:08:37;10.93;;;6.40;;
28988;SDS011;16089;59.952;10.818;2023-09-07T13:11:04;12.55;;;6.53;;
28988;SDS011;16089;59.952;10.818;2023-09-07T13:13:30;11.68;;;6.82;;
28988;SDS011;16089;59.952;10.818;2023-09-07T13:15:56;12.38;;;7.47;;
28988;SDS011;16089;59.952;10.818;2023-09-07T13:18:23;10.90;;;6.85;;
28988;SDS011;16089;59.952;10.818;2023-09-07T13:20:49;12.20;;;7.47;;
28988;SDS011;16089;59.952;10.818;2023-09-07T13:23:18;12.57;;;7.65;;
28988;SDS011;16089;59.952;10.818;2023-09-07T13:25:44;10.82;;;7.40;;
28988;SDS011;16089;59.952;10.818;2023-09-07T13:28:10;12.90;;;7.85;;
28988;SDS011;16089;59.952;10.818;2023-09-07T13:30:36;12.32;;;8.23;;
28988;SDS011;16089;59.952;10.818;2023-09-07T13:33:03;12.95;;;8.35;;
28988;SDS011;16089;59.952;10.818;2023-09-07T13:35:29;12.85;;;8.55;;
28988;SDS011;16089;59.952;10.818;2023-09-07T13:37:55;18.33;;;9.20;;
28988;SDS011;16089;59.952;10.818;2023-09-07T13:40:23;16.10;;;9.27;;
28988;SDS011;16089;59.952;10.818;2023-09-07T13:42:49;19.38;;;9.88;;
28988;SDS011;16089;59.952;10.818;2023-09-07T13:45:16;15.02;;;9.15;;
28988;SDS011;16089;59.952;10.818;2023-09-07T13:47:42;23.80;;;10.57;;
28988;SDS011;16089;59.952;10.818;2023-09-07T13:50:10;15.85;;;10.07;;
28988;SDS011;16089;59.952;10.818;2023-09-07T13:52:36;15.48;;;9.98;;
28988;SDS011;16089;59.952;10.818;2023-09-07T13:55:02;17.60;;;10.18;;
28988;SDS011;16089;59.952;10.818;2023-09-07T13:57:30;18.02;;;10.90;;
28988;SDS011;16089;59.952;10.818;2023-09-07T13:59:56;17.65;;;10.80;;
28988;SDS011;16089;59.952;10.818;2023-09-07T14:02:22;17.05;;;11.27;;
28988;SDS011;16089;59.952;10.818;2023-09-07T14:04:49;19.17;;;11.07;;
28988;SDS011;16089;59.952;10.818;2023-09-07T14:07:15;19.40;;;10.55;;
28988;SDS011;16089;59.952;10.818;2023-09-07T14:09:41;20.38;;;10.32;;
28988;SDS011;16089;59.952;10.818;2023-09-07T14:12:08;18.08;;;9.57;;
28988;SDS011;16089;59.952;10.818;2023-09-07T14:14:36;16.42;;;9.75;;
28988;SDS011;16089;59.952;10.818;2023-09-07T14:17:02;16.33;;;9.45;;
28988;SDS011;16089;59.952;10.818;2023-09-07T14:19:28;16.20;;;9.35;;
28988;SDS011;16089;59.952;10.818;2023-09-07T14:21:55;19.00;;;9.07;;
28988;SDS011;16089;59.952;10.818;2023-09-07T14:24:22;16.88;;;8.85;;
28988;SDS011;16089;59.952;10.818;2023-09-07T14:26:48;18.27;;;9.40;;